sensor_id;sensor_type;location;lat;lon;timestamp;P1;durP1;ratioP1;P2;durP2;ratioP2
50483;SDS011;36409;52.168;20.878;2024-01-25T00:00:50;16.10;;;3.30;;
50483;SDS011;36409;52.168;20.878;2024-01-25T00:03:39;14.87;;;3.80;;
50483;SDS011;36409;52.168;20.878;2024-01-25T00:06:10;15.43;;;4.40;;
50483;SDS011;36409;52.168;20.878;2024-01-25T00:08:55;11.67;;;3.13;;
50483;SDS011;36409;52.168;20.878;2024-01-25T00:11:25;10.37;;;2.33;;
50483;SDS011;36409;52.168;20.878;2024-01-25T00:13:54;9.83;;;2.80;;
50483;SDS011;36409;52.168;20.878;2024-01-25T00:16:23;9.07;;;2.17;;
50483;SDS011;36409;52.168;20.878;2024-01-25T00:18:55;9.80;;;2.77;;
50483;SDS011;36409;52.168;20.878;2024-01-25T00:21:29;10.57;;;2.60;;
50483;SDS011;36409;52.168;20.878;2024-01-25T00:24:07;7.13;;;1.90;;
50483;SDS011;36409;52.168;20.878;2024-01-25T00:26:53;9.03;;;2.40;;
50483;SDS011;36409;52.168;20.878;2024-01-25T00:29:37;10.70;;;2.87;;
50483;SDS011;36409;52.168;20.878;2024-01-25T00:32:07;12.07;;;2.73;;
50483;SDS011;36409;52.168;20.878;2024-01-25T00:34:39;9.57;;;2.63;;
50483;SDS011;36409;52.168;20.878;2024-01-25T00:37:11;11.03;;;2.23;;
50483;SDS011;36409;52.168;20.878;2024-01-25T00:39:41;9.67;;;2.33;;
50483;SDS011;36409;52.168;20.878;2024-01-25T00:42:17;11.03;;;2.93;;
50483;SDS011;36409;52.168;20.878;2024-01-25T00:44:56;10.50;;;2.30;;
50483;SDS011;36409;52.168;20.878;2024-01-25T00:47:27;9.37;;;2.53;;
50483;SDS011;36409;52.168;20.878;2024-01-25T00:49:58;12.27;;;3.37;;
50483;SDS011;36409;52.168;20.878;2024-01-25T00:52:30;17.33;;;3.73;;
50483;SDS011;36409;52.168;20.878;2024-01-25T00:55:05;13.90;;;3.13;;
50483;SDS011;36409;52.168;20.878;2024-01-25T00:57:39;17.57;;;3.37;;
50483;SDS011;36409;52.168;20.878;2024-01-25T01:00:12;14.17;;;3.33;;
50483;SDS011;36409;52.168;20.878;2024-01-25T01:02:45;20.27;;;4.60;;
50483;SDS011;36409;52.168;20.878;2024-01-25T01:05:17;15.33;;;3.67;;
50483;SDS011;36409;52.168;20.878;2024-01-25T01:08:01;17.17;;;4.00;;
50483;SDS011;36409;52.168;20.878;2024-01-25T01:10:34;19.40;;;3.80;;
50483;SDS011;36409;52.168;20.878;2024-01-25T01:13:06;17.23;;;3.93;;
50483;SDS011;36409;52.168;20.878;2024-01-25T01:15:35;15.33;;;4.07;;
50483;SDS011;36409;52.168;20.878;2024-01-25T01:18:07;22.20;;;4.43;;
50483;SDS011;36409;52.168;20.878;2024-01-25T01:20:39;14.57;;;3.87;;
50483;SDS011;36409;52.168;20.878;2024-01-25T01:23:11;16.87;;;4.13;;
50483;SDS011;36409;52.168;20.878;2024-01-25T01:25:43;20.50;;;3.57;;
50483;SDS011;36409;52.168;20.878;2024-01-25T01:28:14;17.83;;;3.97;;
50483;SDS011;36409;52.168;20.878;2024-01-25T01:30:45;18.20;;;4.17;;
50483;SDS011;36409;52.168;20.878;2024-01-25T01:33:19;18.63;;;3.77;;
50483;SDS011;36409;52.168;20.878;2024-01-25T01:35:49;16.17;;;3.40;;
50483;SDS011;36409;52.168;20.878;2024-01-25T01:38:20;19.30;;;4.00;;
50483;SDS011;36409;52.168;20.878;2024-01-25T01:40:54;14.30;;;3.70;;
50483;SDS011;36409;52.168;20.878;2024-01-25T01:43:36;15.90;;;3.45;;
50483;SDS011;36409;52.168;20.878;2024-01-25T01:46:09;18.50;;;3.33;;
50483;SDS011;36409;52.168;20.878;2024-01-25T01:48:49;17.53;;;3.47;;
50483;SDS011;36409;52.168;20.878;2024-01-25T01:51:23;19.47;;;3.67;;
50483;SDS011;36409;52.168;20.878;2024-01-25T01:54:02;21.50;;;4.13;;
50483;SDS011;36409;52.168;20.878;2024-01-25T01:56:35;19.37;;;4.37;;
50483;SDS011;36409;52.168;20.878;2024-01-25T01:59:08;21.73;;;4.17;;
50483;SDS011;36409;52.168;20.878;2024-01-25T02:01:44;22.17;;;3.90;;
50483;SDS011;36409;52.168;20.878;2024-01-25T02:04:14;17.33;;;3.90;;
50483;SDS011;36409;52.168;20.878;2024-01-25T02:06:43;21.30;;;4.23;;
50483;SDS011;36409;52.168;20.878;2024-01-25T02:09:13;20.40;;;4.93;;
50483;SDS011;36409;52.168;20.878;2024-01-25T02:11:45;18.67;;;4.03;;
50483;SDS011;36409;52.168;20.878;2024-01-25T02:14:15;14.90;;;4.30;;
50483;SDS011;36409;52.168;20.878;2024-01-25T02:16:48;21.80;;;4.53;;
50483;SDS011;36409;52.168;20.878;2024-01-25T02:19:20;14.17;;;3.57;;
50483;SDS011;36409;52.168;20.878;2024-01-25T02:21:49;24.80;;;4.37;;
50483;SDS011;36409;52.168;20.878;2024-01-25T02:24:41;16.35;;;4.25;;
50483;SDS011;36409;52.168;20.878;2024-01-25T02:27:16;24.87;;;4.37;;
50483;SDS011;36409;52.168;20.878;2024-01-25T02:29:46;21.75;;;4.80;;
50483;SDS011;36409;52.168;20.878;2024-01-25T02:32:15;23.60;;;4.37;;
50483;SDS011;36409;52.168;20.878;2024-01-25T02:34:43;21.20;;;4.70;;
50483;SDS011;36409;52.168;20.878;2024-01-25T02:37:14;17.40;;;3.50;;
50483;SDS011;36409;52.168;20.878;2024-01-25T02:39:49;18.13;;;4.10;;
50483;SDS011;36409;52.168;20.878;2024-01-25T02:42:22;21.33;;;3.97;;
50483;SDS011;36409;52.168;20.878;2024-01-25T02:44:51;18.67;;;3.70;;
50483;SDS011;36409;52.168;20.878;2024-01-25T02:47:22;20.17;;;4.07;;
50483;SDS011;36409;52.168;20.878;2024-01-25T02:49:53;20.50;;;6.07;;
50483;SDS011;36409;52.168;20.878;2024-01-25T02:52:25;22.10;;;5.17;;
50483;SDS011;36409;52.168;20.878;2024-01-25T02:54:54;21.60;;;5.60;;
50483;SDS011;36409;52.168;20.878;2024-01-25T02:57:24;20.00;;;4.40;;
50483;SDS011;36409;52.168;20.878;2024-01-25T02:59:59;21.53;;;4.33;;
50483;SDS011;36409;52.168;20.878;2024-01-25T03:02:28;21.03;;;5.10;;
50483;SDS011;36409;52.168;20.878;2024-01-25T03:05:07;24.47;;;4.97;;
50483;SDS011;36409;52.168;20.878;2024-01-25T03:07:36;27.00;;;4.40;;
50483;SDS011;36409;52.168;20.878;2024-01-25T03:10:06;24.20;;;4.37;;
50483;SDS011;36409;52.168;20.878;2024-01-25T03:12:38;17.12;;;3.72;;
50483;SDS011;36409;52.168;20.878;2024-01-25T03:15:12;17.60;;;4.13;;
50483;SDS011;36409;52.168;20.878;2024-01-25T03:17:42;17.97;;;4.30;;
50483;SDS011;36409;52.168;20.878;2024-01-25T03:20:14;22.67;;;4.13;;
50483;SDS011;36409;52.168;20.878;2024-01-25T03:22:44;27.17;;;4.43;;
50483;SDS011;36409;52.168;20.878;2024-01-25T03:25:14;22.57;;;5.43;;
50483;SDS011;36409;52.168;20.878;2024-01-25T03:27:47;15.75;;;3.77;;
50483;SDS011;36409;52.168;20.878;2024-01-25T03:30:28;22.37;;;3.93;;
50483;SDS011;36409;52.168;20.878;2024-01-25T03:32:57;19.47;;;4.30;;
50483;SDS011;36409;52.168;20.878;2024-01-25T03:35:30;23.50;;;4.33;;
50483;SDS011;36409;52.168;20.878;2024-01-25T03:38:02;18.23;;;4.23;;
50483;SDS011;36409;52.168;20.878;2024-01-25T03:40:32;17.50;;;3.83;;
50483;SDS011;36409;52.168;20.878;2024-01-25T03:43:02;14.53;;;4.30;;
50483;SDS011;36409;52.168;20.878;2024-01-25T03:45:47;18.50;;;4.30;;
50483;SDS011;36409;52.168;20.878;2024-01-25T03:50:49;21.20;;;4.63;;
50483;SDS011;36409;52.168;20.878;2024-01-25T03:53:30;17.27;;;3.83;;
50483;SDS011;36409;52.168;20.878;2024-01-25T03:55:59;19.70;;;4.47;;
50483;SDS011;36409;52.168;20.878;2024-01-25T03:58:35;14.47;;;3.97;;
50483;SDS011;36409;52.168;20.878;2024-01-25T04:01:04;29.27;;;5.00;;
50483;SDS011;36409;52.168;20.878;2024-01-25T04:03:36;24.30;;;4.77;;
50483;SDS011;36409;52.168;20.878;2024-01-25T04:06:09;20.80;;;4.53;;
50483;SDS011;36409;52.168;20.878;2024-01-25T04:08:38;22.90;;;4.47;;
50483;SDS011;36409;52.168;20.878;2024-01-25T04:11:07;22.80;;;4.80;;
50483;SDS011;36409;52.168;20.878;2024-01-25T04:13:38;20.00;;;3.93;;
50483;SDS011;36409;52.168;20.878;2024-01-25T04:16:08;21.10;;;4.60;;
50483;SDS011;36409;52.168;20.878;2024-01-25T04:18:41;27.20;;;4.67;;
50483;SDS011;36409;52.168;20.878;2024-01-25T04:21:15;30.90;;;6.20;;
50483;SDS011;36409;52.168;20.878;2024-01-25T04:23:43;25.20;;;4.53;;
50483;SDS011;36409;52.168;20.878;2024-01-25T04:26:13;21.20;;;4.53;;
50483;SDS011;36409;52.168;20.878;2024-01-25T04:28:43;20.03;;;4.20;;
50483;SDS011;36409;52.168;20.878;2024-01-25T04:31:23;21.07;;;4.00;;
50483;SDS011;36409;52.168;20.878;2024-01-25T04:33:54;22.33;;;4.20;;
50483;SDS011;36409;52.168;20.878;2024-01-25T04:36:26;21.83;;;4.90;;
50483;SDS011;36409;52.168;20.878;2024-01-25T04:38:55;22.40;;;4.87;;
50483;SDS011;36409;52.168;20.878;2024-01-25T04:41:24;17.90;;;4.83;;
50483;SDS011;36409;52.168;20.878;2024-01-25T04:44:09;21.07;;;5.13;;
50483;SDS011;36409;52.168;20.878;2024-01-25T04:49:57;19.37;;;5.50;;
50483;SDS011;36409;52.168;20.878;2024-01-25T04:52:27;15.50;;;4.53;;
50483;SDS011;36409;52.168;20.878;2024-01-25T04:54:56;19.40;;;4.73;;
50483;SDS011;36409;52.168;20.878;2024-01-25T04:57:30;20.55;;;4.55;;
50483;SDS011;36409;52.168;20.878;2024-01-25T04:59:59;19.57;;;4.03;;
50483;SDS011;36409;52.168;20.878;2024-01-25T05:02:32;18.40;;;5.10;;
50483;SDS011;36409;52.168;20.878;2024-01-25T05:05:04;20.00;;;4.87;;
50483;SDS011;36409;52.168;20.878;2024-01-25T05:07:33;15.10;;;4.03;;
50483;SDS011;36409;52.168;20.878;2024-01-25T05:10:05;20.67;;;5.10;;
50483;SDS011;36409;52.168;20.878;2024-01-25T05:12:41;21.00;;;4.23;;
50483;SDS011;36409;52.168;20.878;2024-01-25T05:15:10;19.77;;;4.40;;
50483;SDS011;36409;52.168;20.878;2024-01-25T05:17:39;17.20;;;4.43;;
50483;SDS011;36409;52.168;20.878;2024-01-25T05:20:13;22.15;;;5.17;;
50483;SDS011;36409;52.168;20.878;2024-01-25T05:22:47;28.15;;;6.75;;
50483;SDS011;36409;52.168;20.878;2024-01-25T05:25:17;22.27;;;6.30;;
50483;SDS011;36409;52.168;20.878;2024-01-25T05:27:55;21.55;;;5.70;;
50483;SDS011;36409;52.168;20.878;2024-01-25T05:30:31;30.67;;;6.87;;
50483;SDS011;36409;52.168;20.878;2024-01-25T05:33:04;22.10;;;6.87;;
50483;SDS011;36409;52.168;20.878;2024-01-25T05:35:39;19.50;;;5.30;;
50483;SDS011;36409;52.168;20.878;2024-01-25T05:38:09;21.13;;;4.60;;
50483;SDS011;36409;52.168;20.878;2024-01-25T05:40:39;18.57;;;4.53;;
50483;SDS011;36409;52.168;20.878;2024-01-25T05:43:09;19.63;;;5.40;;
50483;SDS011;36409;52.168;20.878;2024-01-25T05:45:38;13.40;;;3.90;;
50483;SDS011;36409;52.168;20.878;2024-01-25T05:48:15;25.87;;;5.10;;
50483;SDS011;36409;52.168;20.878;2024-01-25T05:50:49;17.23;;;5.43;;
50483;SDS011;36409;52.168;20.878;2024-01-25T05:53:37;25.30;;;5.30;;
50483;SDS011;36409;52.168;20.878;2024-01-25T05:56:06;19.13;;;4.77;;
50483;SDS011;36409;52.168;20.878;2024-01-25T05:58:41;17.50;;;4.57;;
50483;SDS011;36409;52.168;20.878;2024-01-25T06:01:24;24.53;;;5.57;;
50483;SDS011;36409;52.168;20.878;2024-01-25T06:03:56;20.30;;;5.27;;
50483;SDS011;36409;52.168;20.878;2024-01-25T06:06:31;17.23;;;4.17;;
50483;SDS011;36409;52.168;20.878;2024-01-25T06:09:03;16.40;;;4.17;;
50483;SDS011;36409;52.168;20.878;2024-01-25T06:11:50;22.27;;;5.53;;
50483;SDS011;36409;52.168;20.878;2024-01-25T06:14:21;24.57;;;4.57;;
50483;SDS011;36409;52.168;20.878;2024-01-25T06:16:55;20.30;;;3.95;;
50483;SDS011;36409;52.168;20.878;2024-01-25T06:19:24;16.80;;;4.20;;
50483;SDS011;36409;52.168;20.878;2024-01-25T06:21:55;16.73;;;4.17;;
50483;SDS011;36409;52.168;20.878;2024-01-25T06:24:27;21.57;;;4.57;;
50483;SDS011;36409;52.168;20.878;2024-01-25T06:26:58;20.33;;;4.37;;
50483;SDS011;36409;52.168;20.878;2024-01-25T06:29:35;21.23;;;4.97;;
50483;SDS011;36409;52.168;20.878;2024-01-25T06:32:06;19.60;;;4.22;;
50483;SDS011;36409;52.168;20.878;2024-01-25T06:34:41;31.57;;;7.27;;
50483;SDS011;36409;52.168;20.878;2024-01-25T06:37:10;24.67;;;5.83;;
50483;SDS011;36409;52.168;20.878;2024-01-25T06:39:44;18.57;;;4.23;;
50483;SDS011;36409;52.168;20.878;2024-01-25T06:42:18;20.00;;;4.13;;
50483;SDS011;36409;52.168;20.878;2024-01-25T06:44:49;16.00;;;4.77;;
50483;SDS011;36409;52.168;20.878;2024-01-25T06:47:21;19.73;;;5.30;;
50483;SDS011;36409;52.168;20.878;2024-01-25T06:49:51;23.80;;;5.90;;
50483;SDS011;36409;52.168;20.878;2024-01-25T06:52:22;21.10;;;4.83;;
50483;SDS011;36409;52.168;20.878;2024-01-25T06:54:56;17.40;;;4.93;;
50483;SDS011;36409;52.168;20.878;2024-01-25T06:57:29;14.27;;;4.00;;
50483;SDS011;36409;52.168;20.878;2024-01-25T07:00:02;15.70;;;4.37;;
50483;SDS011;36409;52.168;20.878;2024-01-25T07:02:33;14.80;;;4.10;;
50483;SDS011;36409;52.168;20.878;2024-01-25T07:05:02;19.00;;;4.43;;
50483;SDS011;36409;52.168;20.878;2024-01-25T07:07:32;19.07;;;4.47;;
50483;SDS011;36409;52.168;20.878;2024-01-25T07:10:04;21.67;;;5.23;;
50483;SDS011;36409;52.168;20.878;2024-01-25T07:12:34;22.37;;;5.10;;
50483;SDS011;36409;52.168;20.878;2024-01-25T07:15:07;21.07;;;4.73;;
50483;SDS011;36409;52.168;20.878;2024-01-25T07:17:36;22.73;;;6.57;;
50483;SDS011;36409;52.168;20.878;2024-01-25T07:20:10;26.50;;;6.43;;
50483;SDS011;36409;52.168;20.878;2024-01-25T07:22:40;19.20;;;5.37;;
50483;SDS011;36409;52.168;20.878;2024-01-25T07:25:09;16.53;;;4.80;;
50483;SDS011;36409;52.168;20.878;2024-01-25T07:27:38;22.23;;;5.50;;
50483;SDS011;36409;52.168;20.878;2024-01-25T07:30:08;20.30;;;4.60;;
50483;SDS011;36409;52.168;20.878;2024-01-25T07:32:39;14.60;;;3.77;;
50483;SDS011;36409;52.168;20.878;2024-01-25T07:35:09;16.03;;;3.57;;
50483;SDS011;36409;52.168;20.878;2024-01-25T07:37:44;14.50;;;3.00;;
50483;SDS011;36409;52.168;20.878;2024-01-25T07:40:14;14.53;;;3.73;;
50483;SDS011;36409;52.168;20.878;2024-01-25T07:42:47;13.50;;;3.10;;
50483;SDS011;36409;52.168;20.878;2024-01-25T07:45:16;16.93;;;4.70;;
50483;SDS011;36409;52.168;20.878;2024-01-25T07:47:49;12.03;;;3.77;;
50483;SDS011;36409;52.168;20.878;2024-01-25T07:50:30;12.58;;;3.67;;
50483;SDS011;36409;52.168;20.878;2024-01-25T07:53:04;11.57;;;3.55;;
50483;SDS011;36409;52.168;20.878;2024-01-25T07:55:34;14.80;;;4.23;;
50483;SDS011;36409;52.168;20.878;2024-01-25T07:58:07;16.47;;;4.50;;
50483;SDS011;36409;52.168;20.878;2024-01-25T08:00:36;15.37;;;4.33;;
50483;SDS011;36409;52.168;20.878;2024-01-25T08:03:12;17.13;;;3.33;;
50483;SDS011;36409;52.168;20.878;2024-01-25T08:05:50;13.70;;;3.73;;
50483;SDS011;36409;52.168;20.878;2024-01-25T08:08:19;16.40;;;4.60;;
50483;SDS011;36409;52.168;20.878;2024-01-25T08:10:48;14.45;;;4.25;;
50483;SDS011;36409;52.168;20.878;2024-01-25T08:13:18;16.30;;;4.50;;
50483;SDS011;36409;52.168;20.878;2024-01-25T08:15:50;14.50;;;4.30;;
50483;SDS011;36409;52.168;20.878;2024-01-25T08:18:20;13.00;;;3.25;;
50483;SDS011;36409;52.168;20.878;2024-01-25T08:20:50;12.40;;;3.83;;
50483;SDS011;36409;52.168;20.878;2024-01-25T08:23:20;12.13;;;3.47;;
50483;SDS011;36409;52.168;20.878;2024-01-25T08:25:51;9.50;;;2.77;;
50483;SDS011;36409;52.168;20.878;2024-01-25T08:28:21;13.77;;;2.87;;
50483;SDS011;36409;52.168;20.878;2024-01-25T08:30:51;12.27;;;3.30;;
50483;SDS011;36409;52.168;20.878;2024-01-25T08:33:22;9.37;;;3.07;;
50483;SDS011;36409;52.168;20.878;2024-01-25T08:35:52;9.00;;;2.97;;
50483;SDS011;36409;52.168;20.878;2024-01-25T08:38:24;11.23;;;3.57;;
50483;SDS011;36409;52.168;20.878;2024-01-25T08:40:54;8.60;;;3.03;;
50483;SDS011;36409;52.168;20.878;2024-01-25T08:43:26;5.63;;;2.13;;
50483;SDS011;36409;52.168;20.878;2024-01-25T08:45:55;4.93;;;2.20;;
50483;SDS011;36409;52.168;20.878;2024-01-25T08:51:12;6.50;;;2.23;;
50483;SDS011;36409;52.168;20.878;2024-01-25T08:53:44;7.53;;;2.73;;
50483;SDS011;36409;52.168;20.878;2024-01-25T08:56:14;6.97;;;2.10;;
50483;SDS011;36409;52.168;20.878;2024-01-25T08:58:52;12.97;;;6.20;;
50483;SDS011;36409;52.168;20.878;2024-01-25T09:01:21;9.95;;;3.75;;
50483;SDS011;36409;52.168;20.878;2024-01-25T09:03:52;9.57;;;3.07;;
50483;SDS011;36409;52.168;20.878;2024-01-25T09:06:24;9.67;;;3.50;;
50483;SDS011;36409;52.168;20.878;2024-01-25T09:08:57;7.67;;;2.83;;
50483;SDS011;36409;52.168;20.878;2024-01-25T09:11:27;7.90;;;2.43;;
50483;SDS011;36409;52.168;20.878;2024-01-25T09:14:01;8.33;;;2.40;;
50483;SDS011;36409;52.168;20.878;2024-01-25T09:16:30;5.10;;;2.60;;
50483;SDS011;36409;52.168;20.878;2024-01-25T09:19:16;6.20;;;2.50;;
50483;SDS011;36409;52.168;20.878;2024-01-25T09:21:45;9.63;;;2.53;;
50483;SDS011;36409;52.168;20.878;2024-01-25T09:24:14;7.00;;;2.60;;
50483;SDS011;36409;52.168;20.878;2024-01-25T09:26:47;9.37;;;2.93;;
50483;SDS011;36409;52.168;20.878;2024-01-25T09:29:17;9.98;;;2.80;;
50483;SDS011;36409;52.168;20.878;2024-01-25T09:31:48;6.00;;;2.40;;
50483;SDS011;36409;52.168;20.878;2024-01-25T09:34:20;6.60;;;2.70;;
50483;SDS011;36409;52.168;20.878;2024-01-25T09:36:53;6.93;;;3.20;;
50483;SDS011;36409;52.168;20.878;2024-01-25T09:39:24;7.77;;;3.07;;
50483;SDS011;36409;52.168;20.878;2024-01-25T09:41:55;6.50;;;2.70;;
50483;SDS011;36409;52.168;20.878;2024-01-25T09:44:25;6.90;;;2.90;;
50483;SDS011;36409;52.168;20.878;2024-01-25T09:46:54;6.40;;;3.20;;
50483;SDS011;36409;52.168;20.878;2024-01-25T09:49:27;5.50;;;2.70;;
50483;SDS011;36409;52.168;20.878;2024-01-25T09:51:56;7.67;;;3.07;;
50483;SDS011;36409;52.168;20.878;2024-01-25T09:54:31;6.97;;;3.27;;
50483;SDS011;36409;52.168;20.878;2024-01-25T09:57:06;12.00;;;2.77;;
50483;SDS011;36409;52.168;20.878;2024-01-25T09:59:44;5.60;;;2.77;;
50483;SDS011;36409;52.168;20.878;2024-01-25T10:02:15;6.73;;;2.47;;
50483;SDS011;36409;52.168;20.878;2024-01-25T10:04:48;8.13;;;2.67;;
50483;SDS011;36409;52.168;20.878;2024-01-25T10:10:10;6.80;;;2.83;;
50483;SDS011;36409;52.168;20.878;2024-01-25T10:12:42;6.37;;;2.77;;
50483;SDS011;36409;52.168;20.878;2024-01-25T10:15:13;5.50;;;2.33;;
50483;SDS011;36409;52.168;20.878;2024-01-25T10:17:45;6.47;;;2.47;;
50483;SDS011;36409;52.168;20.878;2024-01-25T10:20:42;6.20;;;2.87;;
50483;SDS011;36409;52.168;20.878;2024-01-25T10:23:13;5.40;;;2.30;;
50483;SDS011;36409;52.168;20.878;2024-01-25T10:25:45;4.80;;;2.20;;
50483;SDS011;36409;52.168;20.878;2024-01-25T10:28:17;7.47;;;2.40;;
50483;SDS011;36409;52.168;20.878;2024-01-25T10:30:46;7.03;;;2.67;;
50483;SDS011;36409;52.168;20.878;2024-01-25T10:33:16;5.10;;;2.37;;
50483;SDS011;36409;52.168;20.878;2024-01-25T10:35:46;3.90;;;1.93;;
50483;SDS011;36409;52.168;20.878;2024-01-25T10:38:18;6.30;;;2.50;;
50483;SDS011;36409;52.168;20.878;2024-01-25T10:43:35;4.97;;;1.60;;
50483;SDS011;36409;52.168;20.878;2024-01-25T10:46:04;3.70;;;1.90;;
50483;SDS011;36409;52.168;20.878;2024-01-25T10:48:35;6.23;;;2.93;;
50483;SDS011;36409;52.168;20.878;2024-01-25T10:51:06;5.43;;;1.90;;
50483;SDS011;36409;52.168;20.878;2024-01-25T10:53:41;6.20;;;2.37;;
50483;SDS011;36409;52.168;20.878;2024-01-25T10:56:18;5.77;;;2.33;;
50483;SDS011;36409;52.168;20.878;2024-01-25T10:58:51;4.90;;;2.35;;
50483;SDS011;36409;52.168;20.878;2024-01-25T11:01:22;6.60;;;2.60;;
50483;SDS011;36409;52.168;20.878;2024-01-25T11:03:52;6.23;;;2.33;;
50483;SDS011;36409;52.168;20.878;2024-01-25T11:06:22;7.87;;;2.77;;
50483;SDS011;36409;52.168;20.878;2024-01-25T11:09:04;7.00;;;2.27;;
50483;SDS011;36409;52.168;20.878;2024-01-25T11:11:35;5.13;;;1.90;;
50483;SDS011;36409;52.168;20.878;2024-01-25T11:14:10;5.40;;;2.47;;
50483;SDS011;36409;52.168;20.878;2024-01-25T11:16:41;4.53;;;2.27;;
50483;SDS011;36409;52.168;20.878;2024-01-25T11:19:20;4.17;;;2.00;;
50483;SDS011;36409;52.168;20.878;2024-01-25T11:21:51;4.53;;;2.03;;
50483;SDS011;36409;52.168;20.878;2024-01-25T11:24:22;6.30;;;2.40;;
50483;SDS011;36409;52.168;20.878;2024-01-25T11:26:54;6.33;;;2.03;;
50483;SDS011;36409;52.168;20.878;2024-01-25T11:29:26;5.67;;;2.30;;
50483;SDS011;36409;52.168;20.878;2024-01-25T11:31:54;4.93;;;1.90;;
50483;SDS011;36409;52.168;20.878;2024-01-25T11:34:24;4.73;;;1.87;;
50483;SDS011;36409;52.168;20.878;2024-01-25T11:36:53;6.57;;;2.57;;
50483;SDS011;36409;52.168;20.878;2024-01-25T11:39:27;6.20;;;2.10;;
50483;SDS011;36409;52.168;20.878;2024-01-25T11:41:56;5.83;;;2.20;;
50483;SDS011;36409;52.168;20.878;2024-01-25T11:44:27;8.80;;;2.73;;
50483;SDS011;36409;52.168;20.878;2024-01-25T11:46:57;5.43;;;2.43;;
50483;SDS011;36409;52.168;20.878;2024-01-25T11:49:28;7.03;;;3.13;;
50483;SDS011;36409;52.168;20.878;2024-01-25T11:51:58;5.63;;;2.60;;
50483;SDS011;36409;52.168;20.878;2024-01-25T11:54:31;7.85;;;2.95;;
50483;SDS011;36409;52.168;20.878;2024-01-25T11:57:01;6.87;;;2.60;;
50483;SDS011;36409;52.168;20.878;2024-01-25T11:59:31;7.27;;;3.13;;
50483;SDS011;36409;52.168;20.878;2024-01-25T12:02:01;6.15;;;2.70;;
50483;SDS011;36409;52.168;20.878;2024-01-25T12:04:31;4.80;;;2.20;;
50483;SDS011;36409;52.168;20.878;2024-01-25T12:07:05;9.68;;;2.98;;
50483;SDS011;36409;52.168;20.878;2024-01-25T12:09:35;7.30;;;2.50;;
50483;SDS011;36409;52.168;20.878;2024-01-25T12:12:05;7.80;;;2.20;;
50483;SDS011;36409;52.168;20.878;2024-01-25T12:14:36;6.23;;;2.63;;
50483;SDS011;36409;52.168;20.878;2024-01-25T12:17:05;8.43;;;2.53;;
50483;SDS011;36409;52.168;20.878;2024-01-25T12:19:35;7.27;;;2.63;;
50483;SDS011;36409;52.168;20.878;2024-01-25T12:22:04;7.67;;;2.80;;
50483;SDS011;36409;52.168;20.878;2024-01-25T12:24:35;13.17;;;3.20;;
50483;SDS011;36409;52.168;20.878;2024-01-25T12:27:08;5.80;;;2.43;;
50483;SDS011;36409;52.168;20.878;2024-01-25T12:29:38;5.63;;;2.80;;
50483;SDS011;36409;52.168;20.878;2024-01-25T12:32:07;10.93;;;4.20;;
50483;SDS011;36409;52.168;20.878;2024-01-25T12:34:36;11.93;;;3.93;;
50483;SDS011;36409;52.168;20.878;2024-01-25T12:37:07;8.33;;;3.10;;
50483;SDS011;36409;52.168;20.878;2024-01-25T12:39:39;8.67;;;2.83;;
50483;SDS011;36409;52.168;20.878;2024-01-25T12:42:08;8.03;;;2.93;;
50483;SDS011;36409;52.168;20.878;2024-01-25T12:44:38;8.93;;;2.43;;
50483;SDS011;36409;52.168;20.878;2024-01-25T12:47:07;5.00;;;2.13;;
50483;SDS011;36409;52.168;20.878;2024-01-25T12:49:36;9.97;;;3.33;;
50483;SDS011;36409;52.168;20.878;2024-01-25T12:52:06;7.30;;;2.30;;
50483;SDS011;36409;52.168;20.878;2024-01-25T12:54:36;5.13;;;1.77;;
50483;SDS011;36409;52.168;20.878;2024-01-25T12:57:05;5.67;;;1.60;;
50483;SDS011;36409;52.168;20.878;2024-01-25T12:59:36;5.20;;;2.10;;
50483;SDS011;36409;52.168;20.878;2024-01-25T13:02:06;3.57;;;1.37;;
50483;SDS011;36409;52.168;20.878;2024-01-25T13:04:38;4.40;;;1.70;;
50483;SDS011;36409;52.168;20.878;2024-01-25T13:07:08;3.50;;;1.60;;
50483;SDS011;36409;52.168;20.878;2024-01-25T13:09:37;3.60;;;2.13;;
50483;SDS011;36409;52.168;20.878;2024-01-25T13:12:08;4.00;;;1.80;;
50483;SDS011;36409;52.168;20.878;2024-01-25T13:14:39;4.10;;;1.87;;
50483;SDS011;36409;52.168;20.878;2024-01-25T13:17:09;3.83;;;1.90;;
50483;SDS011;36409;52.168;20.878;2024-01-25T13:19:38;4.70;;;2.00;;
50483;SDS011;36409;52.168;20.878;2024-01-25T13:22:07;4.03;;;1.63;;
50483;SDS011;36409;52.168;20.878;2024-01-25T13:24:36;4.13;;;1.73;;
50483;SDS011;36409;52.168;20.878;2024-01-25T13:27:05;5.57;;;2.03;;
50483;SDS011;36409;52.168;20.878;2024-01-25T13:29:34;5.07;;;2.27;;
50483;SDS011;36409;52.168;20.878;2024-01-25T13:32:03;6.65;;;2.55;;
50483;SDS011;36409;52.168;20.878;2024-01-25T13:34:34;4.30;;;2.37;;
50483;SDS011;36409;52.168;20.878;2024-01-25T13:37:06;4.63;;;1.93;;
50483;SDS011;36409;52.168;20.878;2024-01-25T13:39:35;4.73;;;2.10;;
50483;SDS011;36409;52.168;20.878;2024-01-25T13:42:04;5.27;;;2.37;;
50483;SDS011;36409;52.168;20.878;2024-01-25T13:44:35;5.03;;;2.13;;
50483;SDS011;36409;52.168;20.878;2024-01-25T13:47:06;5.00;;;2.00;;
50483;SDS011;36409;52.168;20.878;2024-01-25T13:49:35;6.57;;;2.40;;
50483;SDS011;36409;52.168;20.878;2024-01-25T13:52:05;6.93;;;2.63;;
50483;SDS011;36409;52.168;20.878;2024-01-25T13:54:34;5.73;;;2.63;;
50483;SDS011;36409;52.168;20.878;2024-01-25T13:57:05;5.33;;;2.57;;
50483;SDS011;36409;52.168;20.878;2024-01-25T13:59:36;7.97;;;3.10;;
50483;SDS011;36409;52.168;20.878;2024-01-25T14:02:05;7.37;;;2.97;;
50483;SDS011;36409;52.168;20.878;2024-01-25T14:04:35;6.87;;;3.20;;
50483;SDS011;36409;52.168;20.878;2024-01-25T14:07:07;7.70;;;2.80;;
50483;SDS011;36409;52.168;20.878;2024-01-25T14:09:37;5.93;;;2.77;;
50483;SDS011;36409;52.168;20.878;2024-01-25T14:12:10;6.83;;;2.47;;
50483;SDS011;36409;52.168;20.878;2024-01-25T14:14:39;4.63;;;2.40;;
50483;SDS011;36409;52.168;20.878;2024-01-25T14:17:09;5.60;;;2.70;;
50483;SDS011;36409;52.168;20.878;2024-01-25T14:19:41;5.47;;;2.73;;
50483;SDS011;36409;52.168;20.878;2024-01-25T14:22:10;4.87;;;2.57;;
50483;SDS011;36409;52.168;20.878;2024-01-25T14:24:56;6.47;;;2.87;;
50483;SDS011;36409;52.168;20.878;2024-01-25T14:27:25;6.07;;;2.90;;
50483;SDS011;36409;52.168;20.878;2024-01-25T14:29:55;7.03;;;2.87;;
50483;SDS011;36409;52.168;20.878;2024-01-25T14:32:24;6.37;;;3.03;;
50483;SDS011;36409;52.168;20.878;2024-01-25T14:34:54;5.83;;;2.20;;
50483;SDS011;36409;52.168;20.878;2024-01-25T14:37:25;6.80;;;2.85;;
50483;SDS011;36409;52.168;20.878;2024-01-25T14:39:54;6.57;;;2.53;;
50483;SDS011;36409;52.168;20.878;2024-01-25T14:42:43;5.97;;;2.70;;
50483;SDS011;36409;52.168;20.878;2024-01-25T14:45:12;5.90;;;2.70;;
50483;SDS011;36409;52.168;20.878;2024-01-25T14:47:45;5.73;;;3.10;;
50483;SDS011;36409;52.168;20.878;2024-01-25T14:50:22;6.40;;;2.83;;
50483;SDS011;36409;52.168;20.878;2024-01-25T14:52:56;6.37;;;2.90;;
50483;SDS011;36409;52.168;20.878;2024-01-25T14:55:35;6.10;;;3.00;;
50483;SDS011;36409;52.168;20.878;2024-01-25T14:58:08;4.97;;;2.20;;
50483;SDS011;36409;52.168;20.878;2024-01-25T15:00:40;9.88;;;3.58;;
50483;SDS011;36409;52.168;20.878;2024-01-25T15:03:27;6.60;;;2.55;;
50483;SDS011;36409;52.168;20.878;2024-01-25T15:06:08;7.07;;;2.80;;
50483;SDS011;36409;52.168;20.878;2024-01-25T15:08:38;5.57;;;2.50;;
50483;SDS011;36409;52.168;20.878;2024-01-25T15:13:48;6.53;;;2.83;;